Time,TemperatureF,DewpointF,PressureIn,WindDirection,WindDirectionDegrees,WindSpeedMPH,WindSpeedGustMPH,Humidity,HourlyPrecipIn,Conditions,Clouds,dailyrainin,SolarRadiationWatts/m^2,SoftwareType,DateUTC
2013-02-06 00:05:00,29.8,27.5,30.14,NW,310,4.0,4.0,91,0.00,,,0.00,0,Wunderground v.1.15,2013-02-06 06:05:00,
2013-02-06 00:15:00,29.4,26.8,30.14,NW,310,3.0,3.0,90,0.00,,,0.00,0,Wunderground v.1.15,2013-02-06 06:15:00,
2013-02-06 00:20:00,29.1,26.5,30.14,NW,310,2.0,2.0,90,0.00,,,0.00,0,Wunderground v.1.15,2013-02-06 06:20:00,
2013-02-06 00:25:00,28.8,26.2,30.14,NW,310,2.0,3.0,90,0.00,,,0.00,0,Wunderground v.1.15,2013-02-06 06:25:00,
2013-02-06 00:30:00,28.6,26.0,30.14,NW,310,3.0,3.0,90,0.00,,,0.00,0,Wunderground v.1.15,2013-02-06 06:30:00,
2013-02-06 00:35:00,28.5,26.2,30.15,NW,310,2.0,3.0,91,0.00,,,0.00,0,Wunderground v.1.15,2013-02-06 06:35:00,
2013-02-06 00:44:00,28.4,26.1,30.15,NW,310,2.0,2.0,91,0.00,,,0.00,0,Wunderground v.1.15,2013-02-06 06:44:00,
2013-02-06 00:50:00,28.3,26.0,30.15,NW,310,1.0,2.0,91,0.00,,,0.00,0,Wunderground v.1.15,2013-02-06 06:50:00,
2013-02-06 00:55:00,28.1,25.8,30.15,NW,310,2.0,3.0,91,0.00,,,0.00,0,Wunderground v.1.15,2013-02-06 06:55:00,
2013-02-06 01:00:00,28.1,26.1,30.16,NW,310,3.0,4.0,92,0.00,,,0.00,0,Wunderground v.1.15,2013-02-06 07:00:00,
2013-02-06 01:05:00,28.0,25.7,30.16,NW,310,3.0,4.0,91,0.00,,,0.00,0,Wunderground v.1.15,2013-02-06 07:05:00,
2013-02-06 01:10:00,27.8,25.8,30.16,NW,310,4.0,4.0,92,0.00,,,0.00,0,Wunderground v.1.15,2013-02-06 07:10:00,
2013-02-06 01:20:00,27.5,25.5,30.16,NW,310,2.0,2.0,92,0.00,,,0.00,0,Wunderground v.1.15,2013-02-06 07:20:00,
2013-02-06 01:25:00,27.5,25.5,30.16,NW,310,1.0,2.0,92,0.00,,,0.00,0,Wunderground v.1.15,2013-02-06 07:25:00,
2013-02-06 01:30:00,27.3,25.3,30.17,NW,310,1.0,2.0,92,0.00,,,0.00,0,Wunderground v.1.15,2013-02-06 07:30:00,
2013-02-06 01:35:00,27.1,25.1,30.17,NW,310,2.0,3.0,92,0.00,,,0.00,0,Wunderground v.1.15,2013-02-06 07:35:00,
2013-02-06 01:40:00,27.3,25.3,30.17,NW,310,3.0,4.0,92,0.00,,,0.00,0,Wunderground v.1.15,2013-02-06 07:40:00,
2013-02-06 01:50:00,27.4,25.4,30.17,NW,310,3.0,3.0,92,0.00,,,0.00,0,Wunderground v.1.15,2013-02-06 07:50:00,
2013-02-06 01:55:00,27.4,25.6,30.17,NW,310,3.0,4.0,93,0.00,,,0.00,0,Wunderground v.1.15,2013-02-06 07:55:00,
2013-02-06 02:00:00,27.6,25.8,30.17,NW,310,4.0,5.0,93,0.00,,,0.00,0,Wunderground v.1.15,2013-02-06 08:00:00,
2013-02-06 02:05:00,27.8,26.0,30.17,NW,310,4.0,5.0,93,0.00,,,0.00,0,Wunderground v.1.15,2013-02-06 08:05:00,
2013-02-06 02:10:00,27.8,26.0,30.17,NW,310,4.0,4.0,93,0.00,,,0.00,0,Wunderground v.1.15,2013-02-06 08:10:00,
2013-02-06 02:15:00,27.7,25.7,30.17,NW,310,2.0,4.0,92,0.00,,,0.00,0,Wunderground v.1.15,2013-02-06 08:15:00,
2013-02-06 02:25:00,27.5,25.5,30.18,NW,310,0.0,3.0,92,0.00,,,0.00,0,Wunderground v.1.15,2013-02-06 08:25:00,
2013-02-06 02:30:00,27.4,25.4,30.18,NW,310,2.0,2.0,92,0.00,,,0.00,0,Wunderground v.1.15,2013-02-06 08:30:00,
2013-02-06 02:35:00,27.3,25.3,30.18,NW,310,2.0,3.0,92,0.00,,,0.00,0,Wunderground v.1.15,2013-02-06 08:35:00,
2013-02-06 02:40:00,27.0,25.0,30.18,NW,310,2.0,3.0,92,0.00,,,0.00,0,Wunderground v.1.15,2013-02-06 08:40:00,
2013-02-06 02:45:00,26.9,24.9,30.18,NW,310,3.0,3.0,92,0.00,,,0.00,0,Wunderground v.1.15,2013-02-06 08:45:00,
2013-02-06 02:55:00,26.7,24.7,30.18,NW,310,3.0,3.0,92,0.00,,,0.00,0,Wunderground v.1.15,2013-02-06 08:55:00,
2013-02-06 03:00:00,26.6,24.6,30.18,NW,310,3.0,3.0,92,0.00,,,0.00,0,Wunderground v.1.15,2013-02-06 09:00:00,
2013-02-06 03:05:00,26.4,24.4,30.18,NW,310,2.0,3.0,92,0.00,,,0.00,0,Wunderground v.1.15,2013-02-06 09:05:00,
2013-02-06 03:10:00,26.1,24.1,30.18,NW,310,1.0,2.0,92,0.00,,,0.00,0,Wunderground v.1.15,2013-02-06 09:10:00,
2013-02-06 03:15:00,25.9,23.9,30.18,NW,310,1.0,2.0,92,0.00,,,0.00,0,Wunderground v.1.15,2013-02-06 09:15:00,
2013-02-06 03:20:00,25.7,23.7,30.17,NW,310,2.0,3.0,92,0.00,,,0.00,0,Wunderground v.1.15,2013-02-06 09:20:00,
2013-02-06 03:30:00,25.7,24.0,30.18,NW,310,2.0,2.0,93,0.00,,,0.00,0,Wunderground v.1.15,2013-02-06 09:30:00,
2013-02-06 03:35:00,25.7,24.0,30.17,NW,310,3.0,3.0,93,0.00,,,0.00,0,Wunderground v.1.15,2013-02-06 09:35:00,
2013-02-06 03:40:00,25.9,24.2,30.17,NW,310,3.0,3.0,93,0.00,,,0.00,0,Wunderground v.1.15,2013-02-06 09:40:00,
2013-02-06 03:45:00,26.0,24.3,30.17,NW,310,4.0,4.0,93,0.00,,,0.00,0,Wunderground v.1.15,2013-02-06 09:45:00,
2013-02-06 03:50:00,26.1,24.4,30.17,NW,310,3.0,3.0,93,0.00,,,0.00,0,Wunderground v.1.15,2013-02-06 09:50:00,
2013-02-06 04:00:00,26.1,24.4,30.17,NW,310,1.0,1.0,93,0.00,,,0.00,0,Wunderground v.1.15,2013-02-06 10:00:00,
2013-02-06 04:05:00,25.9,24.2,30.18,NW,310,0.0,1.0,93,0.00,,,0.00,0,Wunderground v.1.15,2013-02-06 10:05:00,
2013-02-06 04:10:00,25.7,24.0,30.17,NW,310,0.0,0.0,93,0.00,,,0.00,0,Wunderground v.1.15,2013-02-06 10:10:00,
2013-02-06 04:15:00,25.6,23.9,30.17,NW,310,0.0,0.0,93,0.00,,,0.00,0,Wunderground v.1.15,2013-02-06 10:15:00,
2013-02-06 04:20:00,25.4,23.7,30.17,NW,310,0.0,0.0,93,0.00,,,0.00,0,Wunderground v.1.15,2013-02-06 10:20:00,
2013-02-06 04:25:00,25.2,23.5,30.18,NW,310,0.0,0.0,93,0.00,,,0.00,0,Wunderground v.1.15,2013-02-06 10:25:00,
2013-02-06 04:35:00,24.7,23.0,30.18,NW,310,0.0,0.0,93,0.00,,,0.00,0,Wunderground v.1.15,2013-02-06 10:35:00,
2013-02-06 04:40:00,24.4,22.4,30.18,NW,310,0.0,0.0,92,0.00,,,0.00,0,Wunderground v.1.15,2013-02-06 10:40:00,
2013-02-06 04:45:00,24.3,22.3,30.18,NW,310,0.0,0.0,92,0.00,,,0.00,0,Wunderground v.1.15,2013-02-06 10:45:00,
2013-02-06 04:50:00,24.2,22.5,30.19,NW,310,0.0,3.0,93,0.00,,,0.00,0,Wunderground v.1.15,2013-02-06 10:50:00,
2013-02-06 04:55:00,24.3,22.6,30.20,NW,310,2.0,3.0,93,0.00,,,0.00,0,Wunderground v.1.15,2013-02-06 10:55:00,
2013-02-06 05:05:00,24.5,23.0,30.20,NW,310,3.0,3.0,94,0.00,,,0.00,0,Wunderground v.1.15,2013-02-06 11:05:00,
2013-02-06 05:10:00,24.6,23.1,30.19,NW,310,3.0,3.0,94,0.00,,,0.00,0,Wunderground v.1.15,2013-02-06 11:10:00,
2013-02-06 05:15:00,24.6,23.1,30.19,NW,310,2.0,3.0,94,0.00,,,0.00,0,Wunderground v.1.15,2013-02-06 11:15:00,
2013-02-06 05:20:00,24.5,23.0,30.20,NW,310,3.0,4.0,94,0.00,,,0.00,0,Wunderground v.1.15,2013-02-06 11:20:00,
2013-02-06 05:25:00,24.4,22.9,30.20,NW,310,3.0,4.0,94,0.00,,,0.00,0,Wunderground v.1.15,2013-02-06 11:25:00,
2013-02-06 05:30:00,24.4,22.9,30.20,NW,310,3.0,5.0,94,0.00,,,0.00,0,Wunderground v.1.15,2013-02-06 11:30:00,
2013-02-06 05:40:00,24.3,22.8,30.20,NW,310,3.0,3.0,94,0.00,,,0.00,0,Wunderground v.1.15,2013-02-06 11:40:00,
2013-02-06 05:45:00,24.3,22.8,30.20,NW,310,3.0,3.0,94,0.00,,,0.00,0,Wunderground v.1.15,2013-02-06 11:45:00,
2013-02-06 05:50:00,24.2,22.7,30.20,NW,310,2.0,2.0,94,0.00,,,0.00,0,Wunderground v.1.15,2013-02-06 11:50:00,
2013-02-06 05:55:00,24.2,22.7,30.21,NW,310,1.0,2.0,94,0.00,,,0.00,0,Wunderground v.1.15,2013-02-06 11:55:00,
2013-02-06 06:00:00,24.1,22.6,30.21,NW,310,0.0,0.0,94,0.00,,,0.00,0,Wunderground v.1.15,2013-02-06 12:00:00,
2013-02-06 06:05:00,23.9,22.4,30.21,NW,310,0.0,0.0,94,0.00,,,0.00,0,Wunderground v.1.15,2013-02-06 12:05:00,
2013-02-06 06:10:00,23.6,22.1,30.21,NW,310,0.0,0.0,94,0.00,,,0.00,0,Wunderground v.1.15,2013-02-06 12:10:00,
2013-02-06 06:15:00,23.5,22.0,30.21,NW,310,0.0,0.0,94,0.00,,,0.00,0,Wunderground v.1.15,2013-02-06 12:15:00,
2013-02-06 06:20:00,23.1,21.4,30.19,NW,310,0.0,1.0,93,0.00,,,0.00,0,Wunderground v.1.15,2013-02-06 12:20:00,
2013-02-06 06:25:00,22.9,21.4,30.20,NW,310,0.0,1.0,94,0.00,,,0.00,0,Wunderground v.1.15,2013-02-06 12:25:00,
2013-02-06 06:30:00,22.7,21.2,30.20,NW,310,0.0,0.0,94,0.00,,,0.00,0,Wunderground v.1.15,2013-02-06 12:30:00,
2013-02-06 06:35:00,22.6,21.1,30.20,NW,310,0.0,0.0,94,0.00,,,0.00,0,Wunderground v.1.15,2013-02-06 12:35:00,
2013-02-06 06:45:00,22.3,20.8,30.20,NW,310,0.0,0.0,94,0.00,,,0.00,0,Wunderground v.1.15,2013-02-06 12:45:00,
2013-02-06 06:50:00,22.2,20.7,30.21,NW,310,0.0,1.0,94,0.00,,,0.00,0,Wunderground v.1.15,2013-02-06 12:50:00,
2013-02-06 06:55:00,22.2,20.7,30.21,NW,310,1.0,1.0,94,0.00,,,0.00,0,Wunderground v.1.15,2013-02-06 12:55:00,
2013-02-06 07:00:00,22.2,20.7,30.21,NW,310,1.0,1.0,94,0.00,,,0.00,0,Wunderground v.1.15,2013-02-06 13:00:00,
2013-02-06 07:05:00,22.2,20.7,30.21,NW,310,0.0,1.0,94,0.00,,,0.00,5,Wunderground v.1.15,2013-02-06 13:05:00,
2013-02-06 07:15:00,22.2,20.7,30.21,NW,310,0.0,0.0,94,0.00,,,0.00,11,Wunderground v.1.15,2013-02-06 13:15:00,
2013-02-06 07:20:00,22.3,20.8,30.21,NW,310,0.0,0.0,94,0.00,,,0.00,14,Wunderground v.1.15,2013-02-06 13:20:00,
2013-02-06 07:25:00,22.4,20.9,30.22,NW,310,0.0,0.0,94,0.00,,,0.00,19,Wunderground v.1.15,2013-02-06 13:25:00,
2013-02-06 07:30:00,22.5,21.0,30.21,NW,310,0.0,0.0,94,0.00,,,0.00,23,Wunderground v.1.15,2013-02-06 13:30:00,
2013-02-06 07:35:00,22.7,21.2,30.21,NW,310,0.0,0.0,94,0.00,,,0.00,28,Wunderground v.1.15,2013-02-06 13:35:00,
2013-02-06 07:40:00,22.8,21.3,30.21,NW,310,0.0,0.0,94,0.00,,,0.00,39,Wunderground v.1.15,2013-02-06 13:40:00,
2013-02-06 07:50:00,23.4,22.2,30.21,NW,310,0.0,0.0,95,0.00,,,0.00,58,Wunderground v.1.15,2013-02-06 13:50:00,
2013-02-06 07:55:00,24.0,22.8,30.21,NW,310,0.0,0.0,95,0.00,,,0.00,76,Wunderground v.1.15,2013-02-06 13:55:00,
2013-02-06 08:00:00,24.2,23.0,30.21,NW,310,0.0,0.0,95,0.00,,,0.00,91,Wunderground v.1.15,2013-02-06 14:00:00,
2013-02-06 08:09:00,25.0,23.8,30.21,NW,310,1.0,1.0,95,0.00,,,0.00,121,Wunderground v.1.15,2013-02-06 14:09:00,
2013-02-06 08:14:00,25.5,24.3,30.21,NW,310,1.0,2.0,95,0.00,,,0.00,139,Wunderground v.1.15,2013-02-06 14:14:00,
2013-02-06 08:20:00,26.1,24.9,30.20,NW,310,1.0,2.0,95,0.00,,,0.00,165,Wunderground v.1.15,2013-02-06 14:20:00,
2013-02-06 08:25:00,27.0,26.0,30.20,NW,310,2.0,2.0,96,0.00,,,0.00,183,Wunderground v.1.15,2013-02-06 14:25:00,
2013-02-06 08:30:00,27.6,26.6,30.21,NW,310,2.0,2.0,96,0.00,,,0.00,199,Wunderground v.1.15,2013-02-06 14:30:00,
2013-02-06 08:35:00,28.2,27.2,30.21,NW,310,1.0,2.0,96,0.00,,,0.00,213,Wunderground v.1.15,2013-02-06 14:35:00,
2013-02-06 08:44:00,29.3,28.3,30.22,NW,310,0.0,2.0,96,0.00,,,0.00,239,Wunderground v.1.15,2013-02-06 14:44:00,
2013-02-06 08:50:00,29.8,28.8,30.22,NW,310,1.0,1.0,96,0.00,,,0.00,246,Wunderground v.1.15,2013-02-06 14:50:00,
2013-02-06 08:55:00,30.5,29.5,30.22,NW,310,1.0,1.0,96,0.00,,,0.00,253,Wunderground v.1.15,2013-02-06 14:55:00,
2013-02-06 09:00:00,31.1,30.1,30.22,NW,310,2.0,4.0,96,0.00,,,0.00,264,Wunderground v.1.15,2013-02-06 15:00:00,
2013-02-06 09:10:00,32.1,31.1,30.23,WSW,252,4.0,8.0,96,0.00,,,0.00,276,Wunderground v.1.15,2013-02-06 15:10:00,
2013-02-06 09:15:00,32.5,31.5,30.23,SW,236,4.0,8.0,96,0.00,,,0.00,302,Wunderground v.1.15,2013-02-06 15:15:00,
2013-02-06 09:20:00,33.0,32.0,30.23,SSW,211,4.0,6.0,96,0.00,,,0.00,315,Wunderground v.1.15,2013-02-06 15:20:00,
2013-02-06 09:25:00,33.4,32.1,30.23,South,170,4.0,7.0,95,0.00,,,0.00,327,Wunderground v.1.15,2013-02-06 15:25:00,
2013-02-06 09:30:00,33.8,32.5,30.24,South,176,5.0,5.0,95,0.00,,,0.00,338,Wunderground v.1.15,2013-02-06 15:30:00,
2013-02-06 09:35:00,34.1,32.6,30.24,South,169,5.0,5.0,94,0.00,,,0.00,353,Wunderground v.1.15,2013-02-06 15:35:00,
2013-02-06 09:40:00,34.5,32.4,30.24,South,169,4.0,5.0,92,0.00,,,0.00,371,Wunderground v.1.15,2013-02-06 15:40:00,
2013-02-06 09:45:00,34.8,32.4,30.24,South,184,5.0,6.0,91,0.00,,,0.00,383,Wunderground v.1.15,2013-02-06 15:45:00,
2013-02-06 09:50:00,35.1,32.2,30.24,South,186,7.0,9.0,89,0.00,,,0.00,396,Wunderground v.1.15,2013-02-06 15:50:00,
2013-02-06 10:00:00,35.7,32.2,30.24,South,181,8.0,9.0,87,0.00,,,0.00,417,Wunderground v.1.15,2013-02-06 16:00:00,
2013-02-06 10:05:00,36.0,32.5,30.24,South,181,8.0,9.0,87,0.00,,,0.00,429,Wunderground v.1.15,2013-02-06 16:05:00,
2013-02-06 10:10:00,36.3,32.5,30.24,SSE,167,7.0,7.0,86,0.00,,,0.00,439,Wunderground v.1.15,2013-02-06 16:10:00,
2013-02-06 10:15:00,36.7,32.9,30.23,SSE,167,7.0,10.0,86,0.00,,,0.00,450,Wunderground v.1.15,2013-02-06 16:15:00,
2013-02-06 10:20:00,37.0,32.6,30.23,South,187,7.0,7.0,84,0.00,,,0.00,462,Wunderground v.1.15,2013-02-06 16:20:00,
2013-02-06 10:25:00,37.3,32.9,30.23,SSE,163,8.0,8.0,84,0.00,,,0.00,473,Wunderground v.1.15,2013-02-06 16:25:00,
2013-02-06 10:35:00,37.9,33.2,30.23,South,176,7.0,12.0,83,0.00,,,0.00,489,Wunderground v.1.15,2013-02-06 16:35:00,
2013-02-06 10:40:00,38.2,32.9,30.22,South,183,8.0,8.0,81,0.00,,,0.00,499,Wunderground v.1.15,2013-02-06 16:40:00,
2013-02-06 10:45:00,38.3,32.7,30.22,SSW,196,8.0,8.0,80,0.00,,,0.00,508,Wunderground v.1.15,2013-02-06 16:45:00,
2013-02-06 10:50:00,38.6,33.3,30.23,SSW,192,8.0,8.0,81,0.00,,,0.00,513,Wunderground v.1.15,2013-02-06 16:50:00,
2013-02-06 10:55:00,39.0,34.0,30.23,South,176,8.0,8.0,82,0.00,,,0.00,519,Wunderground v.1.15,2013-02-06 16:55:00,
2013-02-06 11:05:00,39.3,33.6,30.22,SSW,200,8.0,9.0,80,0.00,,,0.00,534,Wunderground v.1.15,2013-02-06 17:05:00,
2013-02-06 11:10:00,39.5,33.8,30.22,South,184,7.0,8.0,80,0.00,,,0.00,540,Wunderground v.1.15,2013-02-06 17:10:00,
2013-02-06 11:15:00,39.8,34.1,30.22,South,175,7.0,8.0,80,0.00,,,0.00,547,Wunderground v.1.15,2013-02-06 17:15:00,
2013-02-06 11:20:00,40.0,34.0,30.22,South,187,7.0,9.0,79,0.00,,,0.00,550,Wunderground v.1.15,2013-02-06 17:20:00,
2013-02-06 11:25:00,40.1,34.1,30.22,South,186,7.0,9.0,79,0.00,,,0.00,554,Wunderground v.1.15,2013-02-06 17:25:00,
2013-02-06 11:30:00,40.3,34.3,30.22,South,190,7.0,7.0,79,0.00,,,0.00,561,Wunderground v.1.15,2013-02-06 17:30:00,
2013-02-06 11:40:00,41.1,34.4,30.21,South,181,8.0,8.0,77,0.00,,,0.00,570,Wunderground v.1.15,2013-02-06 17:40:00,
2013-02-06 11:45:00,41.5,34.8,30.21,SSW,197,9.0,10.0,77,0.00,,,0.00,570,Wunderground v.1.15,2013-02-06 17:45:00,
2013-02-06 11:50:00,41.8,34.1,30.20,South,169,9.0,9.0,74,0.00,,,0.00,573,Wunderground v.1.15,2013-02-06 17:50:00,
2013-02-06 11:55:00,42.1,34.4,30.20,SSE,164,7.0,9.0,74,0.00,,,0.00,575,Wunderground v.1.15,2013-02-06 17:55:00,
2013-02-06 12:00:00,42.4,34.0,30.20,South,181,7.0,9.0,72,0.00,,,0.00,578,Wunderground v.1.15,2013-02-06 18:00:00,
2013-02-06 12:10:00,42.9,33.8,30.20,South,190,9.0,9.0,70,0.00,,,0.00,582,Wunderground v.1.15,2013-02-06 18:10:00,
2013-02-06 12:15:00,43.2,34.8,30.20,South,184,8.0,9.0,72,0.00,,,0.00,584,Wunderground v.1.15,2013-02-06 18:15:00,
2013-02-06 12:20:00,43.4,33.9,30.19,SSW,193,8.0,13.0,69,0.00,,,0.00,580,Wunderground v.1.15,2013-02-06 18:20:00,
2013-02-06 12:25:00,43.5,33.6,30.19,SSE,163,10.0,13.0,68,0.00,,,0.00,580,Wunderground v.1.15,2013-02-06 18:25:00,
2013-02-06 12:30:00,43.7,33.8,30.19,South,173,10.0,10.0,68,0.00,,,0.00,582,Wunderground v.1.15,2013-02-06 18:30:00,
2013-02-06 12:35:00,44.0,34.8,30.19,SSW,198,9.0,12.0,70,0.00,,,0.00,578,Wunderground v.1.15,2013-02-06 18:35:00,
2013-02-06 12:45:00,44.3,34.4,30.19,SSW,201,11.0,14.0,68,0.00,,,0.00,577,Wunderground v.1.15,2013-02-06 18:45:00,
2013-02-06 12:50:00,44.6,35.1,30.19,SSE,167,10.0,10.0,69,0.00,,,0.00,573,Wunderground v.1.15,2013-02-06 18:50:00,
2013-02-06 12:55:00,44.8,34.5,30.19,SSW,199,10.0,14.0,67,0.00,,,0.00,571,Wunderground v.1.15,2013-02-06 18:55:00,
2013-02-06 13:00:00,45.0,35.8,30.19,SSW,193,11.0,11.0,70,0.00,,,0.00,566,Wunderground v.1.15,2013-02-06 19:00:00,
2013-02-06 13:10:00,45.3,35.7,30.18,South,185,11.0,12.0,69,0.00,,,0.00,555,Wunderground v.1.15,2013-02-06 19:10:00,
2013-02-06 13:20:00,45.6,36.0,30.18,SSW,202,9.0,14.0,69,0.00,,,0.00,548,Wunderground v.1.15,2013-02-06 19:20:00,
2013-02-06 13:25:00,45.6,35.3,30.17,South,187,9.0,14.0,67,0.00,,,0.00,545,Wunderground v.1.15,2013-02-06 19:25:00,
2013-02-06 13:30:00,45.7,35.7,30.17,South,176,8.0,9.0,68,0.00,,,0.00,538,Wunderground v.1.15,2013-02-06 19:30:00,
2013-02-06 13:35:00,45.8,35.5,30.17,SSW,195,7.0,13.0,67,0.00,,,0.00,533,Wunderground v.1.15,2013-02-06 19:35:00,
2013-02-06 13:40:00,46.0,36.0,30.17,SSW,192,8.0,12.0,68,0.00,,,0.00,526,Wunderground v.1.15,2013-02-06 19:40:00,
2013-02-06 13:45:00,46.1,36.5,30.16,South,188,9.0,12.0,69,0.00,,,0.00,517,Wunderground v.1.15,2013-02-06 19:45:00,
2013-02-06 13:50:00,46.1,36.5,30.16,South,172,9.0,9.0,69,0.00,,,0.00,508,Wunderground v.1.15,2013-02-06 19:50:00,
2013-02-06 13:55:00,46.1,34.6,30.16,SSE,164,9.0,10.0,64,0.00,,,0.00,503,Wunderground v.1.15,2013-02-06 19:55:00,
2013-02-06 14:00:00,46.2,35.5,30.15,South,179,8.0,8.0,66,0.00,,,0.00,496,Wunderground v.1.15,2013-02-06 20:00:00,
2013-02-06 14:10:00,46.5,35.7,30.15,South,171,7.0,11.0,66,0.00,,,0.00,482,Wunderground v.1.15,2013-02-06 20:10:00,
2013-02-06 14:15:00,46.6,35.8,30.14,SSE,160,9.0,11.0,66,0.00,,,0.00,475,Wunderground v.1.15,2013-02-06 20:15:00,
2013-02-06 14:25:00,46.8,35.6,30.14,SSE,148,9.0,14.0,65,0.00,,,0.00,439,Wunderground v.1.15,2013-02-06 20:25:00,
2013-02-06 14:30:00,46.7,35.2,30.13,SE,144,10.0,12.0,64,0.00,,,0.00,550,Wunderground v.1.15,2013-02-06 20:30:00,
2013-02-06 14:35:00,46.9,35.4,30.13,SSE,151,10.0,12.0,64,0.00,,,0.00,543,Wunderground v.1.15,2013-02-06 20:35:00,
2013-02-06 14:40:00,46.9,35.7,30.13,SSE,148,10.0,13.0,65,0.00,,,0.00,264,Wunderground v.1.15,2013-02-06 20:40:00,
2013-02-06 14:45:00,46.5,35.4,30.13,SE,140,10.0,15.0,65,0.00,,,0.00,200,Wunderground v.1.15,2013-02-06 20:45:00,
2013-02-06 14:50:00,46.2,35.1,30.12,SE,136,10.0,10.0,65,0.00,,,0.00,271,Wunderground v.1.15,2013-02-06 20:50:00,
2013-02-06 14:55:00,46.0,34.5,30.12,SE,146,11.0,16.0,64,0.00,,,0.00,269,Wunderground v.1.15,2013-02-06 20:55:00,
2013-02-06 15:00:00,45.7,34.2,30.11,SSE,151,12.0,12.0,64,0.00,,,0.00,192,Wunderground v.1.15,2013-02-06 21:00:00,
2013-02-06 15:10:00,45.4,34.7,30.11,SE,139,13.0,13.0,66,0.00,,,0.00,230,Wunderground v.1.15,2013-02-06 21:10:00,
2013-02-06 15:15:00,45.5,34.8,30.11,SE,136,13.0,13.0,66,0.00,,,0.00,227,Wunderground v.1.15,2013-02-06 21:15:00,
2013-02-06 15:20:00,45.6,34.9,30.11,SE,126,11.0,13.0,66,0.00,,,0.00,285,Wunderground v.1.15,2013-02-06 21:20:00,
2013-02-06 15:30:00,45.8,35.1,30.10,SE,135,12.0,12.0,66,0.00,,,0.00,174,Wunderground v.1.15,2013-02-06 21:30:00,
2013-02-06 15:35:00,45.7,35.0,30.10,SE,130,11.0,12.0,66,0.00,,,0.00,149,Wunderground v.1.15,2013-02-06 21:35:00,
2013-02-06 15:40:00,45.6,35.3,30.10,SE,129,11.0,11.0,67,0.00,,,0.00,139,Wunderground v.1.15,2013-02-06 21:40:00,
2013-02-06 15:45:00,45.5,35.2,30.09,SE,127,10.0,11.0,67,0.00,,,0.00,171,Wunderground v.1.15,2013-02-06 21:45:00,
2013-02-06 15:50:00,45.4,35.5,30.09,SE,130,10.0,10.0,68,0.00,,,0.00,185,Wunderground v.1.15,2013-02-06 21:50:00,
2013-02-06 16:00:00,45.5,35.2,30.09,SE,138,8.0,8.0,67,0.00,,,0.00,125,Wunderground v.1.15,2013-02-06 22:00:00,
2013-02-06 16:05:00,45.4,34.7,30.09,SE,134,9.0,9.0,66,0.00,,,0.00,98,Wunderground v.1.15,2013-02-06 22:05:00,
2013-02-06 16:10:00,45.2,34.5,30.08,SE,134,9.0,11.0,66,0.00,,,0.00,91,Wunderground v.1.15,2013-02-06 22:10:00,
2013-02-06 16:15:00,45.1,34.4,30.08,SE,132,8.0,11.0,66,0.00,,,0.00,90,Wunderground v.1.15,2013-02-06 22:15:00,
2013-02-06 16:20:00,44.9,35.0,30.09,SE,134,8.0,8.0,68,0.00,,,0.00,79,Wunderground v.1.15,2013-02-06 22:20:00,
2013-02-06 16:25:00,44.8,35.2,30.09,SE,140,6.0,8.0,69,0.00,,,0.00,63,Wunderground v.1.15,2013-02-06 22:25:00,
2013-02-06 16:35:00,44.3,35.1,30.09,SE,142,5.0,7.0,70,0.00,,,0.00,46,Wunderground v.1.15,2013-02-06 22:35:00,
2013-02-06 16:40:00,44.0,34.8,30.09,SE,142,5.0,5.0,70,0.00,,,0.00,37,Wunderground v.1.15,2013-02-06 22:40:00,
2013-02-06 16:45:00,43.8,35.0,30.09,SE,142,5.0,5.0,71,0.00,,,0.00,33,Wunderground v.1.15,2013-02-06 22:45:00,
2013-02-06 16:50:00,43.6,35.2,30.09,SE,142,4.0,5.0,72,0.00,,,0.00,46,Wunderground v.1.15,2013-02-06 22:50:00,
2013-02-06 16:55:00,43.3,34.9,30.10,SE,142,4.0,5.0,72,0.00,,,0.00,44,Wunderground v.1.15,2013-02-06 22:55:00,
2013-02-06 17:00:00,43.2,34.8,30.10,SE,142,4.0,5.0,72,0.00,,,0.00,28,Wunderground v.1.15,2013-02-06 23:00:00,
2013-02-06 17:05:00,43.0,34.6,30.10,SE,142,5.0,5.0,72,0.00,,,0.00,25,Wunderground v.1.15,2013-02-06 23:05:00,
2013-02-06 17:10:00,42.8,34.4,30.10,SE,142,4.0,5.0,72,0.00,,,0.00,21,Wunderground v.1.15,2013-02-06 23:10:00,
2013-02-06 17:15:00,42.7,34.3,30.11,SE,142,4.0,5.0,72,0.00,,,0.00,16,Wunderground v.1.15,2013-02-06 23:15:00,
2013-02-06 17:20:00,42.4,34.4,30.11,SE,142,4.0,4.0,73,0.00,,,0.00,9,Wunderground v.1.15,2013-02-06 23:20:00,
2013-02-06 17:25:00,42.0,34.0,30.10,SE,142,5.0,5.0,73,0.00,,,0.00,0,Wunderground v.1.15,2013-02-06 23:25:00,
2013-02-06 17:30:00,41.6,33.2,30.10,SE,137,5.0,9.0,72,0.00,,,0.00,0,Wunderground v.1.15,2013-02-06 23:30:00,
2013-02-06 17:40:00,41.6,33.6,30.10,SE,130,6.0,6.0,73,0.00,,,0.00,0,Wunderground v.1.15,2013-02-06 23:40:00,
2013-02-06 17:45:00,41.4,33.7,30.09,SE,130,6.0,6.0,74,0.00,,,0.00,0,Wunderground v.1.15,2013-02-06 23:45:00,
2013-02-06 17:50:00,41.2,33.5,30.09,SE,126,5.0,6.0,74,0.00,,,0.00,0,Wunderground v.1.15,2013-02-06 23:50:00,
2013-02-06 17:55:00,41.0,33.7,30.09,SE,125,6.0,6.0,75,0.00,,,0.00,0,Wunderground v.1.15,2013-02-06 23:55:00,
2013-02-06 18:00:00,40.8,33.8,30.09,SE,125,5.0,5.0,76,0.00,,,0.00,0,Wunderground v.1.15,2013-02-07 00:00:00,
2013-02-06 18:10:00,40.7,33.7,30.09,SE,126,7.0,7.0,76,0.00,,,0.00,0,Wunderground v.1.15,2013-02-07 00:10:00,
2013-02-06 18:15:00,40.7,33.7,30.09,SE,126,7.0,7.0,76,0.00,,,0.00,0,Wunderground v.1.15,2013-02-07 00:15:00,
2013-02-06 18:20:00,40.7,34.0,30.09,SE,125,8.0,8.0,77,0.00,,,0.00,0,Wunderground v.1.15,2013-02-07 00:20:00,
2013-02-06 18:25:00,40.7,34.0,30.10,SE,127,8.0,8.0,77,0.00,,,0.00,0,Wunderground v.1.15,2013-02-07 00:25:00,
2013-02-06 18:30:00,40.7,34.0,30.10,SE,127,7.0,9.0,77,0.00,,,0.00,0,Wunderground v.1.15,2013-02-07 00:30:00,
2013-02-06 18:35:00,40.6,34.0,30.09,SE,126,7.0,10.0,77,0.00,,,0.00,0,Wunderground v.1.15,2013-02-07 00:35:00,
2013-02-06 18:45:00,40.4,33.8,30.09,SE,125,8.0,11.0,77,0.00,,,0.00,0,Wunderground v.1.15,2013-02-07 00:45:00,
2013-02-06 18:50:00,40.3,33.7,30.09,SE,126,8.0,8.0,77,0.00,,,0.00,0,Wunderground v.1.15,2013-02-07 00:50:00,
2013-02-06 18:55:00,40.2,33.6,30.09,ESE,121,8.0,8.0,77,0.00,,,0.00,0,Wunderground v.1.15,2013-02-07 00:55:00,
2013-02-06 19:00:00,40.0,33.4,30.08,ESE,121,8.0,10.0,77,0.00,,,0.00,0,Wunderground v.1.15,2013-02-07 01:00:00,
2013-02-06 19:10:00,39.6,33.0,30.07,ESE,119,8.0,9.0,77,0.00,,,0.00,0,Wunderground v.1.15,2013-02-07 01:10:00,
2013-02-06 19:15:00,39.2,32.6,30.08,ESE,123,9.0,9.0,77,0.00,,,0.00,0,Wunderground v.1.15,2013-02-07 01:15:00,
2013-02-06 19:20:00,39.0,32.7,30.08,SE,126,9.0,10.0,78,0.00,,,0.00,0,Wunderground v.1.15,2013-02-07 01:20:00,
2013-02-06 19:25:00,38.9,32.6,30.08,ESE,123,9.0,12.0,78,0.00,,,0.00,0,Wunderground v.1.15,2013-02-07 01:25:00,
2013-02-06 19:30:00,38.8,32.8,30.07,ESE,116,10.0,10.0,79,0.00,,,0.00,0,Wunderground v.1.15,2013-02-07 01:30:00,
2013-02-06 19:35:00,38.6,32.6,30.07,SE,128,10.0,10.0,79,0.00,,,0.00,0,Wunderground v.1.15,2013-02-07 01:35:00,
2013-02-06 19:40:00,38.4,32.8,30.07,ESE,119,9.0,10.0,80,0.00,,,0.00,0,Wunderground v.1.15,2013-02-07 01:40:00,
2013-02-06 19:50:00,38.2,32.6,30.07,ESE,120,8.0,8.0,80,0.00,,,0.00,0,Wunderground v.1.15,2013-02-07 01:50:00,
2013-02-06 19:55:00,38.1,32.8,30.07,ESE,121,8.0,8.0,81,0.00,,,0.00,0,Wunderground v.1.15,2013-02-07 01:55:00,
2013-02-06 20:00:00,38.0,32.7,30.07,ESE,122,8.0,9.0,81,0.00,,,0.00,0,Wunderground v.1.15,2013-02-07 02:00:00,
2013-02-06 20:10:00,37.8,32.5,30.07,ESE,121,9.0,9.0,81,0.00,,,0.00,0,Wunderground v.1.15,2013-02-07 02:10:00,
2013-02-06 20:15:00,37.7,32.4,30.07,SE,128,8.0,9.0,81,0.00,,,0.00,0,Wunderground v.1.15,2013-02-07 02:15:00,
2013-02-06 20:25:00,37.6,32.3,30.07,ESE,120,10.0,10.0,81,0.00,,,0.00,0,Wunderground v.1.15,2013-02-07 02:25:00,
2013-02-06 20:30:00,37.5,32.5,30.07,ESE,121,9.0,9.0,82,0.00,,,0.00,0,Wunderground v.1.15,2013-02-07 02:30:00,
2013-02-06 20:35:00,37.6,32.6,30.07,SE,129,9.0,11.0,82,0.00,,,0.00,0,Wunderground v.1.15,2013-02-07 02:35:00,
2013-02-06 20:40:00,37.6,32.3,30.07,SE,126,10.0,10.0,81,0.00,,,0.00,0,Wunderground v.1.15,2013-02-07 02:40:00,
2013-02-06 20:45:00,37.5,32.5,30.07,ESE,122,10.0,10.0,82,0.00,,,0.00,0,Wunderground v.1.15,2013-02-07 02:45:00,
2013-02-06 20:55:00,37.4,32.4,30.07,SE,129,10.0,12.0,82,0.00,,,0.00,0,Wunderground v.1.15,2013-02-07 02:55:00,
2013-02-06 21:00:00,37.4,32.4,30.07,SE,134,10.0,12.0,82,0.00,,,0.00,0,Wunderground v.1.15,2013-02-07 03:00:00,
2013-02-06 21:05:00,37.3,32.3,30.08,SE,131,10.0,12.0,82,0.00,,,0.00,0,Wunderground v.1.15,2013-02-07 03:05:00,
2013-02-06 21:10:00,37.2,32.2,30.08,SE,134,9.0,9.0,82,0.00,,,0.00,0,Wunderground v.1.15,2013-02-07 03:10:00,
2013-02-06 21:15:00,37.2,32.2,30.08,SE,134,9.0,11.0,82,0.00,,,0.00,0,Wunderground v.1.15,2013-02-07 03:15:00,
2013-02-06 21:20:00,37.3,32.3,30.08,SE,134,10.0,10.0,82,0.00,,,0.00,0,Wunderground v.1.15,2013-02-07 03:20:00,
2013-02-06 21:30:00,37.4,32.4,30.08,SE,130,9.0,9.0,82,0.00,,,0.00,0,Wunderground v.1.15,2013-02-07 03:30:00,
2013-02-06 21:35:00,37.3,32.3,30.08,SE,127,9.0,10.0,82,0.00,,,0.00,0,Wunderground v.1.15,2013-02-07 03:35:00,
2013-02-06 21:40:00,37.1,32.1,30.08,SE,128,8.0,8.0,82,0.00,,,0.00,0,Wunderground v.1.15,2013-02-07 03:40:00,
2013-02-06 21:45:00,37.0,32.0,30.08,SE,125,8.0,8.0,82,0.00,,,0.00,0,Wunderground v.1.15,2013-02-07 03:45:00,
2013-02-06 21:50:00,36.8,32.1,30.08,ESE,120,7.0,7.0,83,0.00,,,0.00,0,Wunderground v.1.15,2013-02-07 03:50:00,
2013-02-06 22:00:00,36.5,32.1,30.08,ESE,121,6.0,6.0,84,0.00,,,0.00,0,Wunderground v.1.15,2013-02-07 04:00:00,
2013-02-06 22:05:00,36.6,32.2,30.08,SE,124,6.0,6.0,84,0.00,,,0.00,0,Wunderground v.1.15,2013-02-07 04:05:00,
2013-02-06 22:10:00,36.7,32.3,30.08,ESE,123,6.0,6.0,84,0.00,,,0.00,0,Wunderground v.1.15,2013-02-07 04:10:00,
2013-02-06 22:15:00,36.8,32.4,30.08,SE,124,6.0,6.0,84,0.00,,,0.00,0,Wunderground v.1.15,2013-02-07 04:15:00,
2013-02-06 22:20:00,37.0,32.3,30.08,ESE,123,6.0,6.0,83,0.00,,,0.00,0,Wunderground v.1.15,2013-02-07 04:20:00,
2013-02-06 22:25:00,37.1,32.4,30.08,SE,128,6.0,6.0,83,0.00,,,0.00,0,Wunderground v.1.15,2013-02-07 04:25:00,
2013-02-06 22:35:00,37.3,32.6,30.07,SE,130,8.0,10.0,83,0.00,,,0.00,0,Wunderground v.1.15,2013-02-07 04:35:00,
2013-02-06 22:40:00,37.5,32.8,30.07,SE,138,11.0,12.0,83,0.00,,,0.00,0,Wunderground v.1.15,2013-02-07 04:40:00,
2013-02-06 22:45:00,37.7,33.0,30.06,SE,142,12.0,12.0,83,0.00,,,0.00,0,Wunderground v.1.15,2013-02-07 04:45:00,
2013-02-06 22:50:00,37.8,32.8,30.05,SE,130,13.0,14.0,82,0.00,,,0.00,0,Wunderground v.1.15,2013-02-07 04:50:00,
2013-02-06 22:55:00,37.9,33.2,30.04,SE,146,14.0,14.0,83,0.00,,,0.00,0,Wunderground v.1.15,2013-02-07 04:55:00,
2013-02-06 23:05:00,37.8,33.1,30.06,SE,143,12.0,13.0,83,0.00,,,0.00,0,Wunderground v.1.15,2013-02-07 05:05:00,
2013-02-06 23:10:00,37.9,33.2,30.06,SE,144,12.0,12.0,83,0.00,,,0.00,0,Wunderground v.1.15,2013-02-07 05:10:00,
2013-02-06 23:15:00,37.9,33.2,30.05,SE,142,12.0,12.0,83,0.00,,,0.00,0,Wunderground v.1.15,2013-02-07 05:15:00,
2013-02-06 23:20:00,37.9,33.2,30.05,SSE,150,12.0,12.0,83,0.00,,,0.00,0,Wunderground v.1.15,2013-02-07 05:20:00,
2013-02-06 23:25:00,37.8,33.1,30.04,SSE,153,11.0,15.0,83,0.00,,,0.00,0,Wunderground v.1.15,2013-02-07 05:25:00,
2013-02-06 23:30:00,37.9,33.2,30.04,SE,138,11.0,15.0,83,0.00,,,0.00,0,Wunderground v.1.15,2013-02-07 05:30:00,
2013-02-06 23:40:00,37.9,33.2,30.04,SE,139,10.0,11.0,83,0.00,,,0.00,0,Wunderground v.1.15,2013-02-07 05:40:00,
2013-02-06 23:45:00,37.9,33.5,30.05,SE,143,7.0,11.0,84,0.00,,,0.00,0,Wunderground v.1.15,2013-02-07 05:45:00,
2013-02-06 23:50:00,37.9,33.5,30.05,SE,138,6.0,7.0,84,0.00,,,0.00,0,Wunderground v.1.15,2013-02-07 05:50:00,
2013-02-06 23:55:00,37.9,33.5,30.04,SE,135,7.0,7.0,84,0.00,,,0.00,0,Wunderground v.1.15,2013-02-07 05:55:00,